sensor_id;sensor_type;location;lat;lon;timestamp;temperature;humidity
2855;DHT22;1435;49.472;10.940;2023-10-09T00:03:19;14.40;99.90
2855;DHT22;1435;49.472;10.940;2023-10-09T00:08:23;14.30;99.90
2855;DHT22;1435;49.472;10.940;2023-10-09T00:13:30;14.30;99.90
2855;DHT22;1435;49.472;10.940;2023-10-09T00:18:34;14.20;99.90
2855;DHT22;1435;49.472;10.940;2023-10-09T00:23:36;14.10;99.90
2855;DHT22;1435;49.472;10.940;2023-10-09T00:28:38;14.10;99.90
2855;DHT22;1435;49.472;10.940;2023-10-09T00:33:46;14.00;99.90
2855;DHT22;1435;49.472;10.940;2023-10-09T00:38:47;14.00;99.90
2855;DHT22;1435;49.472;10.940;2023-10-09T00:43:52;14.00;99.90
2855;DHT22;1435;49.472;10.940;2023-10-09T00:48:57;14.00;99.90
2855;DHT22;1435;49.472;10.940;2023-10-09T00:54:05;13.90;99.90
2855;DHT22;1435;49.472;10.940;2023-10-09T00:59:16;13.90;99.90
2855;DHT22;1435;49.472;10.940;2023-10-09T01:04:23;13.90;99.90
2855;DHT22;1435;49.472;10.940;2023-10-09T01:09:26;13.90;99.90
2855;DHT22;1435;49.472;10.940;2023-10-09T01:14:29;13.80;99.90
2855;DHT22;1435;49.472;10.940;2023-10-09T01:19:32;13.80;99.90
2855;DHT22;1435;49.472;10.940;2023-10-09T01:24:36;13.80;99.90
2855;DHT22;1435;49.472;10.940;2023-10-09T01:29:39;13.80;99.90
2855;DHT22;1435;49.472;10.940;2023-10-09T01:34:42;13.90;99.90
2855;DHT22;1435;49.472;10.940;2023-10-09T01:39:47;13.80;99.90
2855;DHT22;1435;49.472;10.940;2023-10-09T01:44:49;13.90;99.90
2855;DHT22;1435;49.472;10.940;2023-10-09T01:49:51;13.90;99.90
2855;DHT22;1435;49.472;10.940;2023-10-09T01:54:55;13.90;99.90
2855;DHT22;1435;49.472;10.940;2023-10-09T02:00:06;13.90;99.90
2855;DHT22;1435;49.472;10.940;2023-10-09T02:05:09;13.90;99.90
2855;DHT22;1435;49.472;10.940;2023-10-09T02:10:25;13.90;99.90
2855;DHT22;1435;49.472;10.940;2023-10-09T02:15:32;13.90;99.90
2855;DHT22;1435;49.472;10.940;2023-10-09T02:20:53;13.90;99.90
2855;DHT22;1435;49.472;10.940;2023-10-09T02:26:02;13.90;99.90
2855;DHT22;1435;49.472;10.940;2023-10-09T02:31:10;13.90;99.90
2855;DHT22;1435;49.472;10.940;2023-10-09T02:36:12;13.90;99.90
2855;DHT22;1435;49.472;10.940;2023-10-09T02:41:15;13.90;99.90
2855;DHT22;1435;49.472;10.940;2023-10-09T02:46:23;14.00;99.90
2855;DHT22;1435;49.472;10.940;2023-10-09T02:51:31;14.00;99.90
2855;DHT22;1435;49.472;10.940;2023-10-09T02:56:43;14.00;99.90
2855;DHT22;1435;49.472;10.940;2023-10-09T03:01:48;14.00;99.90
2855;DHT22;1435;49.472;10.940;2023-10-09T03:06:52;14.00;99.90
2855;DHT22;1435;49.472;10.940;2023-10-09T03:12:00;14.00;99.90
2855;DHT22;1435;49.472;10.940;2023-10-09T03:17:04;14.00;99.90
2855;DHT22;1435;49.472;10.940;2023-10-09T03:22:08;14.00;99.90
2855;DHT22;1435;49.472;10.940;2023-10-09T03:27:12;13.90;99.90
2855;DHT22;1435;49.472;10.940;2023-10-09T03:32:14;14.00;99.90
2855;DHT22;1435;49.472;10.940;2023-10-09T03:37:16;13.90;99.90
2855;DHT22;1435;49.472;10.940;2023-10-09T03:42:35;14.00;99.90
2855;DHT22;1435;49.472;10.940;2023-10-09T03:47:37;13.90;99.90
2855;DHT22;1435;49.472;10.940;2023-10-09T03:52:41;13.90;99.90
2855;DHT22;1435;49.472;10.940;2023-10-09T03:57:45;13.80;99.90
2855;DHT22;1435;49.472;10.940;2023-10-09T04:02:46;13.80;99.90
2855;DHT22;1435;49.472;10.940;2023-10-09T04:07:50;13.70;99.90
2855;DHT22;1435;49.472;10.940;2023-10-09T04:12:55;13.60;99.90
2855;DHT22;1435;49.472;10.940;2023-10-09T04:17:59;13.50;99.90
2855;DHT22;1435;49.472;10.940;2023-10-09T04:23:03;13.40;99.90
2855;DHT22;1435;49.472;10.940;2023-10-09T04:28:08;13.40;99.90
2855;DHT22;1435;49.472;10.940;2023-10-09T04:33:11;13.40;99.90
2855;DHT22;1435;49.472;10.940;2023-10-09T04:38:28;13.20;99.90
2855;DHT22;1435;49.472;10.940;2023-10-09T04:43:36;13.20;99.90
2855;DHT22;1435;49.472;10.940;2023-10-09T04:48:44;13.10;99.90
2855;DHT22;1435;49.472;10.940;2023-10-09T04:53:46;13.00;99.90
2855;DHT22;1435;49.472;10.940;2023-10-09T04:58:56;12.90;99.90
2855;DHT22;1435;49.472;10.940;2023-10-09T05:04:04;12.80;99.90
2855;DHT22;1435;49.472;10.940;2023-10-09T05:09:15;12.70;99.90
2855;DHT22;1435;49.472;10.940;2023-10-09T05:14:22;12.70;99.90
2855;DHT22;1435;49.472;10.940;2023-10-09T05:19:39;12.70;99.90
2855;DHT22;1435;49.472;10.940;2023-10-09T05:24:56;12.60;99.90
2855;DHT22;1435;49.472;10.940;2023-10-09T05:30:00;12.70;99.90
2855;DHT22;1435;49.472;10.940;2023-10-09T05:35:13;12.70;99.90
2855;DHT22;1435;49.472;10.940;2023-10-09T05:40:17;12.70;99.90
2855;DHT22;1435;49.472;10.940;2023-10-09T05:45:32;12.80;99.90
2855;DHT22;1435;49.472;10.940;2023-10-09T05:50:52;12.80;99.90
2855;DHT22;1435;49.472;10.940;2023-10-09T05:56:13;12.80;99.90
2855;DHT22;1435;49.472;10.940;2023-10-09T06:01:34;12.80;99.90
2855;DHT22;1435;49.472;10.940;2023-10-09T06:06:50;12.70;99.90
2855;DHT22;1435;49.472;10.940;2023-10-09T06:11:57;12.70;99.90
2855;DHT22;1435;49.472;10.940;2023-10-09T06:17:14;12.70;99.90
2855;DHT22;1435;49.472;10.940;2023-10-09T06:22:24;12.70;99.90
2855;DHT22;1435;49.472;10.940;2023-10-09T06:27:46;12.80;99.90
2855;DHT22;1435;49.472;10.940;2023-10-09T06:33:01;12.80;99.90
2855;DHT22;1435;49.472;10.940;2023-10-09T06:38:22;12.80;99.90
2855;DHT22;1435;49.472;10.940;2023-10-09T06:43:26;12.80;99.90
2855;DHT22;1435;49.472;10.940;2023-10-09T06:48:31;12.90;99.90
2855;DHT22;1435;49.472;10.940;2023-10-09T06:54:05;13.00;99.90
2855;DHT22;1435;49.472;10.940;2023-10-09T06:59:09;13.10;99.90
2855;DHT22;1435;49.472;10.940;2023-10-09T07:04:17;13.20;99.90
2855;DHT22;1435;49.472;10.940;2023-10-09T07:09:42;13.40;99.90
2855;DHT22;1435;49.472;10.940;2023-10-09T07:15:04;13.50;99.90
2855;DHT22;1435;49.472;10.940;2023-10-09T07:20:22;13.70;99.90
2855;DHT22;1435;49.472;10.940;2023-10-09T07:25:39;13.90;99.90
2855;DHT22;1435;49.472;10.940;2023-10-09T07:30:56;14.00;99.90
2855;DHT22;1435;49.472;10.940;2023-10-09T07:36:02;14.20;99.90
2855;DHT22;1435;49.472;10.940;2023-10-09T07:41:08;14.40;99.90
2855;DHT22;1435;49.472;10.940;2023-10-09T07:46:24;14.60;99.90
2855;DHT22;1435;49.472;10.940;2023-10-09T07:51:35;14.70;99.90
2855;DHT22;1435;49.472;10.940;2023-10-09T07:56:38;15.00;99.90
2855;DHT22;1435;49.472;10.940;2023-10-09T08:01:43;15.10;99.90
2855;DHT22;1435;49.472;10.940;2023-10-09T08:06:54;15.30;99.90
2855;DHT22;1435;49.472;10.940;2023-10-09T08:11:59;15.40;99.90
2855;DHT22;1435;49.472;10.940;2023-10-09T08:17:36;15.50;99.90
2855;DHT22;1435;49.472;10.940;2023-10-09T08:22:39;15.60;99.90
2855;DHT22;1435;49.472;10.940;2023-10-09T08:27:53;15.70;99.90
2855;DHT22;1435;49.472;10.940;2023-10-09T08:32:56;15.90;99.90
2855;DHT22;1435;49.472;10.940;2023-10-09T08:38:04;16.00;99.90
2855;DHT22;1435;49.472;10.940;2023-10-09T08:43:13;16.20;99.90
2855;DHT22;1435;49.472;10.940;2023-10-09T08:48:15;16.30;99.90
2855;DHT22;1435;49.472;10.940;2023-10-09T08:53:19;16.40;99.90
2855;DHT22;1435;49.472;10.940;2023-10-09T08:58:22;16.60;99.90
2855;DHT22;1435;49.472;10.940;2023-10-09T09:03:38;16.70;99.90
2855;DHT22;1435;49.472;10.940;2023-10-09T09:08:42;16.90;99.90
2855;DHT22;1435;49.472;10.940;2023-10-09T09:13:47;17.00;99.90
2855;DHT22;1435;49.472;10.940;2023-10-09T09:18:54;17.20;99.90
2855;DHT22;1435;49.472;10.940;2023-10-09T09:24:02;17.30;99.90
2855;DHT22;1435;49.472;10.940;2023-10-09T09:29:16;17.50;99.90
2855;DHT22;1435;49.472;10.940;2023-10-09T09:34:19;17.50;99.90
2855;DHT22;1435;49.472;10.940;2023-10-09T09:39:27;17.50;99.90
2855;DHT22;1435;49.472;10.940;2023-10-09T09:44:31;17.50;99.90
2855;DHT22;1435;49.472;10.940;2023-10-09T09:49:34;17.50;99.90
2855;DHT22;1435;49.472;10.940;2023-10-09T09:54:40;17.50;99.90
2855;DHT22;1435;49.472;10.940;2023-10-09T09:59:42;17.50;99.90
2855;DHT22;1435;49.472;10.940;2023-10-09T10:04:55;17.60;99.90
2855;DHT22;1435;49.472;10.940;2023-10-09T10:09:59;17.60;99.90
2855;DHT22;1435;49.472;10.940;2023-10-09T10:15:08;17.70;99.90
2855;DHT22;1435;49.472;10.940;2023-10-09T10:20:15;17.80;99.90
2855;DHT22;1435;49.472;10.940;2023-10-09T10:25:34;17.80;99.90
2855;DHT22;1435;49.472;10.940;2023-10-09T10:30:46;17.90;99.90
2855;DHT22;1435;49.472;10.940;2023-10-09T10:35:47;18.00;99.90
2855;DHT22;1435;49.472;10.940;2023-10-09T10:40:54;18.00;99.90
2855;DHT22;1435;49.472;10.940;2023-10-09T10:46:03;18.00;99.90
2855;DHT22;1435;49.472;10.940;2023-10-09T10:51:14;18.00;99.90
2855;DHT22;1435;49.472;10.940;2023-10-09T10:56:24;18.00;99.90
2855;DHT22;1435;49.472;10.940;2023-10-09T11:01:36;18.10;99.90
2855;DHT22;1435;49.472;10.940;2023-10-09T11:06:54;18.10;99.90
2855;DHT22;1435;49.472;10.940;2023-10-09T11:12:08;18.10;99.90
2855;DHT22;1435;49.472;10.940;2023-10-09T11:17:22;18.10;99.90
2855;DHT22;1435;49.472;10.940;2023-10-09T11:22:26;18.10;99.90
2855;DHT22;1435;49.472;10.940;2023-10-09T11:27:40;18.20;99.90
2855;DHT22;1435;49.472;10.940;2023-10-09T11:32:50;18.20;99.90
2855;DHT22;1435;49.472;10.940;2023-10-09T11:38:05;18.20;99.90
2855;DHT22;1435;49.472;10.940;2023-10-09T11:43:22;18.30;99.90
2855;DHT22;1435;49.472;10.940;2023-10-09T11:48:44;18.30;99.90
2855;DHT22;1435;49.472;10.940;2023-10-09T11:54:07;18.30;99.90
2855;DHT22;1435;49.472;10.940;2023-10-09T11:59:10;18.40;99.90
2855;DHT22;1435;49.472;10.940;2023-10-09T12:04:13;18.40;99.90
2855;DHT22;1435;49.472;10.940;2023-10-09T12:09:16;18.50;99.90
2855;DHT22;1435;49.472;10.940;2023-10-09T12:14:26;18.50;99.90
2855;DHT22;1435;49.472;10.940;2023-10-09T12:19:34;18.50;99.90
2855;DHT22;1435;49.472;10.940;2023-10-09T12:24:36;18.50;99.90
2855;DHT22;1435;49.472;10.940;2023-10-09T12:29:41;18.50;99.90
2855;DHT22;1435;49.472;10.940;2023-10-09T12:34:45;18.50;99.90
2855;DHT22;1435;49.472;10.940;2023-10-09T12:39:50;18.50;99.90
2855;DHT22;1435;49.472;10.940;2023-10-09T12:44:57;18.50;99.90
2855;DHT22;1435;49.472;10.940;2023-10-09T12:50:00;18.50;99.90
2855;DHT22;1435;49.472;10.940;2023-10-09T12:55:02;18.60;99.90
2855;DHT22;1435;49.472;10.940;2023-10-09T13:00:09;18.60;99.90
2855;DHT22;1435;49.472;10.940;2023-10-09T13:05:11;18.70;99.90
2855;DHT22;1435;49.472;10.940;2023-10-09T13:10:26;18.70;99.90
2855;DHT22;1435;49.472;10.940;2023-10-09T13:15:33;18.80;99.90
2855;DHT22;1435;49.472;10.940;2023-10-09T13:20:43;18.80;99.90
2855;DHT22;1435;49.472;10.940;2023-10-09T13:25:45;18.90;99.90
2855;DHT22;1435;49.472;10.940;2023-10-09T13:30:48;18.90;99.90
2855;DHT22;1435;49.472;10.940;2023-10-09T13:35:51;19.00;99.90
2855;DHT22;1435;49.472;10.940;2023-10-09T13:40:57;19.00;99.90
2855;DHT22;1435;49.472;10.940;2023-10-09T13:46:03;19.10;99.90
2855;DHT22;1435;49.472;10.940;2023-10-09T13:51:04;19.10;99.90
2855;DHT22;1435;49.472;10.940;2023-10-09T13:56:11;19.30;99.90
2855;DHT22;1435;49.472;10.940;2023-10-09T14:01:17;19.40;99.90
2855;DHT22;1435;49.472;10.940;2023-10-09T14:06:27;19.50;99.90
2855;DHT22;1435;49.472;10.940;2023-10-09T14:11:32;19.60;99.90
2855;DHT22;1435;49.472;10.940;2023-10-09T14:16:39;19.70;99.90
2855;DHT22;1435;49.472;10.940;2023-10-09T14:21:43;19.70;99.90
2855;DHT22;1435;49.472;10.940;2023-10-09T14:26:45;19.70;99.90
2855;DHT22;1435;49.472;10.940;2023-10-09T14:31:48;19.70;99.90
2855;DHT22;1435;49.472;10.940;2023-10-09T14:37:00;19.70;99.90
2855;DHT22;1435;49.472;10.940;2023-10-09T14:42:02;19.70;99.90
2855;DHT22;1435;49.472;10.940;2023-10-09T14:47:11;19.70;99.90
2855;DHT22;1435;49.472;10.940;2023-10-09T14:52:15;19.70;99.90
2855;DHT22;1435;49.472;10.940;2023-10-09T14:57:19;19.70;99.90
2855;DHT22;1435;49.472;10.940;2023-10-09T15:02:22;19.80;99.90
2855;DHT22;1435;49.472;10.940;2023-10-09T15:07:24;19.80;99.90
2855;DHT22;1435;49.472;10.940;2023-10-09T15:12:26;19.80;99.90
2855;DHT22;1435;49.472;10.940;2023-10-09T15:17:29;19.80;99.90
2855;DHT22;1435;49.472;10.940;2023-10-09T15:22:30;19.80;99.90
2855;DHT22;1435;49.472;10.940;2023-10-09T15:27:37;19.70;99.90
2855;DHT22;1435;49.472;10.940;2023-10-09T15:32:41;19.80;99.90
2855;DHT22;1435;49.472;10.940;2023-10-09T15:37:43;19.80;99.90
2855;DHT22;1435;49.472;10.940;2023-10-09T15:42:46;19.80;99.90
2855;DHT22;1435;49.472;10.940;2023-10-09T15:47:51;19.80;99.90
2855;DHT22;1435;49.472;10.940;2023-10-09T15:52:54;19.80;99.90
2855;DHT22;1435;49.472;10.940;2023-10-09T15:57:55;19.80;99.90
2855;DHT22;1435;49.472;10.940;2023-10-09T16:03:00;19.70;99.90
2855;DHT22;1435;49.472;10.940;2023-10-09T16:08:04;19.60;99.90
2855;DHT22;1435;49.472;10.940;2023-10-09T16:13:06;19.50;99.90
2855;DHT22;1435;49.472;10.940;2023-10-09T16:18:14;19.50;99.90
2855;DHT22;1435;49.472;10.940;2023-10-09T16:23:16;19.50;99.90
2855;DHT22;1435;49.472;10.940;2023-10-09T16:28:20;19.40;99.90
2855;DHT22;1435;49.472;10.940;2023-10-09T16:33:23;19.30;99.90
2855;DHT22;1435;49.472;10.940;2023-10-09T16:38:26;19.20;99.90
2855;DHT22;1435;49.472;10.940;2023-10-09T16:43:28;19.20;99.90
2855;DHT22;1435;49.472;10.940;2023-10-09T16:48:32;19.10;99.90
2855;DHT22;1435;49.472;10.940;2023-10-09T16:53:33;19.10;99.90
2855;DHT22;1435;49.472;10.940;2023-10-09T16:58:37;19.00;99.90
2855;DHT22;1435;49.472;10.940;2023-10-09T17:03:41;18.90;99.90
2855;DHT22;1435;49.472;10.940;2023-10-09T17:08:43;18.80;99.90
2855;DHT22;1435;49.472;10.940;2023-10-09T17:13:47;18.80;99.90
2855;DHT22;1435;49.472;10.940;2023-10-09T17:18:52;18.70;99.90
2855;DHT22;1435;49.472;10.940;2023-10-09T17:23:54;18.70;99.90
2855;DHT22;1435;49.472;10.940;2023-10-09T17:28:55;18.60;99.90
2855;DHT22;1435;49.472;10.940;2023-10-09T17:33:58;18.50;99.90
2855;DHT22;1435;49.472;10.940;2023-10-09T17:39:03;18.50;99.90
2855;DHT22;1435;49.472;10.940;2023-10-09T17:44:05;18.40;99.90
2855;DHT22;1435;49.472;10.940;2023-10-09T17:49:09;18.40;99.90
2855;DHT22;1435;49.472;10.940;2023-10-09T17:54:10;18.30;99.90
2855;DHT22;1435;49.472;10.940;2023-10-09T17:59:13;18.20;99.90
2855;DHT22;1435;49.472;10.940;2023-10-09T18:04:16;18.20;99.90
2855;DHT22;1435;49.472;10.940;2023-10-09T18:09:19;18.20;99.90
2855;DHT22;1435;49.472;10.940;2023-10-09T18:14:22;18.10;99.90
2855;DHT22;1435;49.472;10.940;2023-10-09T18:19:25;18.10;99.90
2855;DHT22;1435;49.472;10.940;2023-10-09T18:24:29;18.00;99.90
2855;DHT22;1435;49.472;10.940;2023-10-09T18:29:37;18.00;99.90
2855;DHT22;1435;49.472;10.940;2023-10-09T18:34:40;18.00;99.90
2855;DHT22;1435;49.472;10.940;2023-10-09T18:39:41;17.90;99.90
2855;DHT22;1435;49.472;10.940;2023-10-09T18:44:43;17.90;99.90
2855;DHT22;1435;49.472;10.940;2023-10-09T18:49:47;17.80;99.90
2855;DHT22;1435;49.472;10.940;2023-10-09T18:54:50;17.80;99.90
2855;DHT22;1435;49.472;10.940;2023-10-09T18:59:52;17.80;99.90
2855;DHT22;1435;49.472;10.940;2023-10-09T19:04:55;17.70;99.90
2855;DHT22;1435;49.472;10.940;2023-10-09T19:09:58;17.70;99.90
2855;DHT22;1435;49.472;10.940;2023-10-09T19:15:01;17.70;99.90
2855;DHT22;1435;49.472;10.940;2023-10-09T19:20:06;17.70;99.90
2855;DHT22;1435;49.472;10.940;2023-10-09T19:25:11;17.60;99.90
2855;DHT22;1435;49.472;10.940;2023-10-09T19:30:16;17.50;99.90
2855;DHT22;1435;49.472;10.940;2023-10-09T19:35:21;17.40;99.90
2855;DHT22;1435;49.472;10.940;2023-10-09T19:40:24;17.40;99.90
2855;DHT22;1435;49.472;10.940;2023-10-09T19:45:27;17.40;99.90
2855;DHT22;1435;49.472;10.940;2023-10-09T19:50:32;17.50;99.90
2855;DHT22;1435;49.472;10.940;2023-10-09T19:55:40;17.60;99.90
2855;DHT22;1435;49.472;10.940;2023-10-09T20:00:44;17.60;99.90
2855;DHT22;1435;49.472;10.940;2023-10-09T20:05:47;17.60;99.90
2855;DHT22;1435;49.472;10.940;2023-10-09T20:10:49;17.60;99.90
2855;DHT22;1435;49.472;10.940;2023-10-09T20:15:55;17.60;99.90
2855;DHT22;1435;49.472;10.940;2023-10-09T20:21:00;17.60;99.90
2855;DHT22;1435;49.472;10.940;2023-10-09T20:26:03;17.50;99.90
2855;DHT22;1435;49.472;10.940;2023-10-09T20:31:07;17.50;99.90
2855;DHT22;1435;49.472;10.940;2023-10-09T20:36:11;17.50;99.90
2855;DHT22;1435;49.472;10.940;2023-10-09T20:41:16;17.50;99.90
2855;DHT22;1435;49.472;10.940;2023-10-09T20:46:19;17.50;99.90
2855;DHT22;1435;49.472;10.940;2023-10-09T20:51:22;17.50;99.90
2855;DHT22;1435;49.472;10.940;2023-10-09T20:56:23;17.60;99.90
2855;DHT22;1435;49.472;10.940;2023-10-09T21:01:26;17.60;99.90
2855;DHT22;1435;49.472;10.940;2023-10-09T21:06:29;17.60;99.90
2855;DHT22;1435;49.472;10.940;2023-10-09T21:11:31;17.70;99.90
2855;DHT22;1435;49.472;10.940;2023-10-09T21:16:34;17.70;99.90
2855;DHT22;1435;49.472;10.940;2023-10-09T21:21:37;17.70;99.90
2855;DHT22;1435;49.472;10.940;2023-10-09T21:26:38;17.70;99.90
2855;DHT22;1435;49.472;10.940;2023-10-09T21:31:40;17.70;99.90
2855;DHT22;1435;49.472;10.940;2023-10-09T21:36:43;17.70;99.90
2855;DHT22;1435;49.472;10.940;2023-10-09T21:41:46;17.60;99.90
2855;DHT22;1435;49.472;10.940;2023-10-09T21:46:48;17.60;99.90
2855;DHT22;1435;49.472;10.940;2023-10-09T21:51:52;17.60;99.90
2855;DHT22;1435;49.472;10.940;2023-10-09T21:56:54;17.50;99.90
2855;DHT22;1435;49.472;10.940;2023-10-09T22:01:56;17.40;99.90
2855;DHT22;1435;49.472;10.940;2023-10-09T22:06:59;17.40;99.90
2855;DHT22;1435;49.472;10.940;2023-10-09T22:12:01;17.30;99.90
2855;DHT22;1435;49.472;10.940;2023-10-09T22:17:02;17.30;99.90
2855;DHT22;1435;49.472;10.940;2023-10-09T22:22:06;17.20;99.90
2855;DHT22;1435;49.472;10.940;2023-10-09T22:27:11;17.20;99.90
2855;DHT22;1435;49.472;10.940;2023-10-09T22:32:18;17.10;99.90
2855;DHT22;1435;49.472;10.940;2023-10-09T22:37:21;17.10;99.90
2855;DHT22;1435;49.472;10.940;2023-10-09T22:42:27;17.00;99.90
2855;DHT22;1435;49.472;10.940;2023-10-09T22:47:29;17.00;99.90
2855;DHT22;1435;49.472;10.940;2023-10-09T22:52:34;17.00;99.90
2855;DHT22;1435;49.472;10.940;2023-10-09T22:57:36;16.90;99.90
2855;DHT22;1435;49.472;10.940;2023-10-09T23:02:38;16.90;99.90
2855;DHT22;1435;49.472;10.940;2023-10-09T23:07:58;16.90;99.90
2855;DHT22;1435;49.472;10.940;2023-10-09T23:13:00;16.80;99.90
2855;DHT22;1435;49.472;10.940;2023-10-09T23:18:15;16.80;99.90
2855;DHT22;1435;49.472;10.940;2023-10-09T23:23:34;16.80;99.90
2855;DHT22;1435;49.472;10.940;2023-10-09T23:28:40;16.80;99.90
2855;DHT22;1435;49.472;10.940;2023-10-09T23:33:51;16.70;99.90
2855;DHT22;1435;49.472;10.940;2023-10-09T23:38:57;16.70;99.90
2855;DHT22;1435;49.472;10.940;2023-10-09T23:44:12;16.70;99.90
2855;DHT22;1435;49.472;10.940;2023-10-09T23:49:21;16.60;99.90
2855;DHT22;1435;49.472;10.940;2023-10-09T23:54:26;16.60;99.90
2855;DHT22;1435;49.472;10.940;2023-10-09T23:59:28;16.60;99.90
